Turnerville, Georgia
Current Conditions -  °F | °C
As of 9:15 AM on Thursday 30 Oct 2014 (Local Time) from KTOC Reporting Station
Clear Clear  
Wind Chill: 50°   Ceiling: Unl
Heat Index: 50°   Visibility: 10mi
Dew Point: 41°   Wind: 3mph
Humidity: 72%   Direction: 350°N
Pressure: 30.09"   Gusts: NA
Location:  34.69°N, 83.43°W
Report Text: KTOC 301315Z AUTO 35003KT 10SM CLR 10/05 A3009 RMK AO2 T00980049
Loading
Personal Weather Stations






























Interactive Weather Map
Tropical Storm Tracking
New forecast layout! Learn more

10-Day Weather Forecast

Advertisements
Track Severe Weather on mobile